Time;durP1;ratioP1;P1;durP2;ratioP2;P2;SDS_P1;SDS_P2;PMS_P1;PMS_P2;Temp;Humidity;BMP_temperature;BMP_pressure;BME280_temperature;BME280_humidity;BME280_pressure;Samples;Min_cycle;Max_cycle;Signal;HPM_P1;HPM_P2
2024/01/10 00:01:46;;;;;;;17.40;7.13;;;-6.60;99.90;;;;;;4773125;30;20191;-84
2024/01/10 00:04:12;;;;;;;11.63;6.27;;;-6.60;99.90;;;;;;4772992;30;20282;-84
2024/01/10 00:06:37;;;;;;;17.90;8.13;;;-6.60;99.90;;;;;;4766076;30;20205;-84
2024/01/10 00:09:04;;;;;;;17.03;7.67;;;-6.60;99.90;;;;;;4776645;30;20195;-83
2024/01/10 00:11:30;;;;;;;13.63;6.60;;;-6.60;99.90;;;;;;4776606;30;20301;-84
2024/01/10 00:13:59;;;;;;;14.17;6.40;;;-6.60;99.90;;;;;;4791189;29;20218;-84
2024/01/10 00:16:26;;;;;;;16.30;7.47;;;-6.60;99.90;;;;;;4776045;30;20199;-84
2024/01/10 00:18:52;;;;;;;17.70;7.37;;;-6.60;99.90;;;;;;4776091;30;20278;-84
2024/01/10 00:21:18;;;;;;;14.23;6.47;;;-6.50;99.90;;;;;;4770037;30;20289;-84
2024/01/10 00:23:43;;;;;;;14.83;6.67;;;-6.60;99.90;;;;;;4766661;30;20306;-83
2024/01/10 00:26:09;;;;;;;16.67;7.60;;;-6.60;99.90;;;;;;4790949;30;20189;-84
2024/01/10 00:28:35;;;;;;;14.07;7.03;;;-6.60;99.90;;;;;;4776177;30;20650;-84
2024/01/10 00:31:02;;;;;;;14.97;8.00;;;-6.70;99.90;;;;;;4791679;29;20199;-84
2024/01/10 00:33:27;;;;;;;14.43;6.23;;;-6.70;99.90;;;;;;4775579;29;20194;-83
2024/01/10 00:35:53;;;;;;;12.40;6.50;;;-6.60;99.90;;;;;;4775255;30;20210;-83
2024/01/10 00:38:19;;;;;;;13.23;6.47;;;-6.60;99.90;;;;;;4775469;30;20202;-84
2024/01/10 00:40:46;;;;;;;15.43;7.23;;;-6.60;99.90;;;;;;4775511;30;20526;-84
2024/01/10 00:43:11;;;;;;;12.43;6.30;;;-6.60;99.90;;;;;;4775538;30;20614;-83
2024/01/10 00:45:37;;;;;;;12.77;6.23;;;-6.60;99.90;;;;;;4775145;30;20717;-84
2024/01/10 00:48:03;;;;;;;16.07;7.43;;;-6.70;99.90;;;;;;4771791;30;20981;-84
2024/01/10 00:50:29;;;;;;;13.27;6.13;;;-6.60;99.90;;;;;;4771594;30;20196;-84
2024/01/10 00:52:55;;;;;;;13.60;7.27;;;-6.70;99.90;;;;;;4775209;30;20197;-83
2024/01/10 00:55:20;;;;;;;13.67;6.40;;;-6.80;99.90;;;;;;4775118;30;20534;-84
2024/01/10 00:57:46;;;;;;;14.13;7.00;;;-6.80;99.90;;;;;;4775259;30;20261;-84
2024/01/10 01:00:12;;;;;;;16.83;7.47;;;-6.80;99.90;;;;;;4790986;29;20590;-84
2024/01/10 01:02:41;;;;;;;23.00;8.27;;;-6.80;99.90;;;;;;4775102;30;20191;-84
2024/01/10 01:05:08;;;;;;;17.37;7.27;;;-6.90;99.90;;;;;;4783753;30;20223;-84
2024/01/10 01:07:34;;;;;;;15.97;7.83;;;-6.80;99.90;;;;;;4774644;30;20195;-83
2024/01/10 01:10:01;;;;;;;14.73;7.00;;;-6.80;99.90;;;;;;4775303;30;20191;-84
2024/01/10 01:12:26;;;;;;;12.30;6.43;;;-6.90;99.90;;;;;;4775308;30;20534;-84
2024/01/10 01:14:53;;;;;;;12.87;6.57;;;-6.90;99.90;;;;;;4774496;30;20195;-84
2024/01/10 01:17:19;;;;;;;12.57;6.33;;;-6.90;99.90;;;;;;4774778;29;20297;-84
2024/01/10 01:19:44;;;;;;;13.17;6.63;;;-6.90;99.90;;;;;;4781691;29;20637;-84
2024/01/10 01:22:10;;;;;;;12.73;6.67;;;-6.90;99.90;;;;;;4774897;30;20197;-84
2024/01/10 01:24:36;;;;;;;13.43;6.77;;;-6.90;99.90;;;;;;4774941;30;20225;-84
2024/01/10 01:27:03;;;;;;;15.00;7.33;;;-6.90;99.90;;;;;;4790895;30;20192;-83
2024/01/10 01:29:29;;;;;;;12.10;6.30;;;-6.90;99.90;;;;;;4774862;30;20277;-83
2024/01/10 01:32:00;;;;;;;12.00;6.90;;;-6.90;99.90;;;;;;4774968;30;20215;-84
2024/01/10 01:34:26;;;;;;;17.10;6.47;;;-6.90;99.90;;;;;;4774596;30;20235;-83
2024/01/10 01:36:52;;;;;;;15.17;6.97;;;-6.90;99.90;;;;;;4783666;29;20261;-84
2024/01/10 01:39:18;;;;;;;11.57;6.10;;;-6.90;99.90;;;;;;4775051;30;20269;-83
2024/01/10 01:41:44;;;;;;;16.27;7.87;;;-6.90;99.90;;;;;;4790742;30;20225;-83
2024/01/10 01:44:10;;;;;;;18.40;7.90;;;-6.90;99.90;;;;;;4789290;30;20223;-84
2024/01/10 01:46:36;;;;;;;16.77;7.53;;;-6.90;99.90;;;;;;4774632;30;20651;-82
2024/01/10 01:49:03;;;;;;;16.77;6.60;;;-7.00;99.90;;;;;;4774495;30;20289;-83
2024/01/10 01:51:31;;;;;;;15.77;6.80;;;-6.90;99.90;;;;;;4774985;30;20196;-83
2024/01/10 01:53:57;;;;;;;15.27;7.07;;;-7.00;99.90;;;;;;4774598;30;20191;-84
2024/01/10 01:56:23;;;;;;;19.20;8.70;;;-7.00;99.90;;;;;;4774535;30;20206;-83
2024/01/10 01:58:51;;;;;;;18.20;8.57;;;-7.00;99.90;;;;;;4774946;30;20195;-84
2024/01/10 02:01:22;;;;;;;17.10;8.17;;;-7.00;99.90;;;;;;4790515;29;20244;-83
2024/01/10 02:03:48;;;;;;;13.40;7.67;;;-7.00;99.90;;;;;;4774297;30;20230;-83
2024/01/10 02:06:13;;;;;;;16.97;7.80;;;-7.00;99.90;;;;;;4785639;29;20342;-83
2024/01/10 02:08:39;;;;;;;13.17;7.67;;;-7.10;99.90;;;;;;4771932;30;20202;-84
2024/01/10 02:11:05;;;;;;;15.13;7.67;;;-7.10;99.90;;;;;;4774475;30;20199;-83
2024/01/10 02:13:35;;;;;;;17.10;8.00;;;-7.10;99.90;;;;;;4774391;30;20195;-83
2024/01/10 02:16:01;;;;;;;16.47;8.13;;;-7.00;99.90;;;;;;4775941;30;20229;-82
2024/01/10 02:18:27;;;;;;;15.93;7.57;;;-7.10;99.90;;;;;;4774311;30;20202;-83
2024/01/10 02:20:53;;;;;;;15.50;7.60;;;-7.10;99.90;;;;;;4789215;29;20207;-83
2024/01/10 02:23:19;;;;;;;15.57;7.43;;;-7.10;99.90;;;;;;4774421;30;20223;-83
2024/01/10 02:25:45;;;;;;;17.47;8.23;;;-7.10;99.90;;;;;;4765146;30;20661;-83
2024/01/10 02:28:12;;;;;;;16.33;7.60;;;-7.10;99.90;;;;;;4761161;30;20236;-83
2024/01/10 02:30:38;;;;;;;13.53;7.57;;;-7.10;99.90;;;;;;4782080;29;20237;-84
2024/01/10 02:33:04;;;;;;;17.20;7.87;;;-7.10;99.90;;;;;;4788988;30;20199;-84
2024/01/10 02:35:32;;;;;;;15.03;8.17;;;-7.10;99.90;;;;;;4774189;30;20251;-84
2024/01/10 02:40:33;;;;;;;17.20;8.10;;;-7.10;99.90;;;;;;4933695;24;20256;-78
2024/01/10 02:42:59;;;;;;;20.57;8.40;;;-7.10;99.90;;;;;;4769675;30;20254;-80
2024/01/10 02:45:25;;;;;;;17.53;8.47;;;-7.10;99.90;;;;;;4770610;30;20192;-80
2024/01/10 02:47:50;;;;;;;18.93;8.63;;;-7.20;99.90;;;;;;4770845;30;20275;-80
2024/01/10 02:50:16;;;;;;;18.70;8.23;;;-7.20;99.90;;;;;;4770935;30;20190;-80
2024/01/10 02:52:42;;;;;;;20.97;9.50;;;-7.20;99.90;;;;;;4763597;30;20216;-80
2024/01/10 02:55:08;;;;;;;19.53;8.73;;;-7.20;99.90;;;;;;4766613;30;20190;-80
2024/01/10 02:57:34;;;;;;;17.00;9.73;;;-7.30;99.90;;;;;;4751392;30;20191;-80
2024/01/10 02:59:59;;;;;;;23.83;9.13;;;-7.30;99.90;;;;;;4732920;30;20195;-80
2024/01/10 03:02:25;;;;;;;18.33;9.80;;;-7.20;99.90;;;;;;4763999;30;20216;-79
2024/01/10 03:04:51;;;;;;;20.53;10.40;;;-7.30;99.90;;;;;;4746316;30;20349;-80
2024/01/10 03:07:17;;;;;;;23.13;10.17;;;-7.20;99.90;;;;;;4770506;30;20190;-80
2024/01/10 03:09:43;;;;;;;21.80;10.10;;;-7.20;99.90;;;;;;4762421;30;20538;-80
2024/01/10 03:12:10;;;;;;;24.97;11.20;;;-7.20;99.90;;;;;;4766110;30;20185;-79
2024/01/10 03:14:36;;;;;;;19.53;9.67;;;-7.20;99.90;;;;;;4751132;30;20192;-79
2024/01/10 03:17:02;;;;;;;18.90;10.50;;;-7.20;99.90;;;;;;4756067;30;20504;-79
2024/01/10 03:19:28;;;;;;;23.67;9.97;;;-7.20;99.90;;;;;;4770642;30;20184;-79
2024/01/10 03:21:54;;;;;;;22.23;10.23;;;-7.20;99.90;;;;;;4770567;30;20197;-80
2024/01/10 03:24:19;;;;;;;25.37;10.53;;;-7.20;99.90;;;;;;4770428;30;20215;-80
2024/01/10 03:26:45;;;;;;;22.70;10.30;;;-7.30;99.90;;;;;;4762813;30;20188;-79
2024/01/10 03:29:11;;;;;;;24.10;11.17;;;-7.20;99.90;;;;;;4763067;30;20195;-79
2024/01/10 03:31:38;;;;;;;29.17;11.67;;;-7.20;99.90;;;;;;4753969;30;20188;-80
2024/01/10 03:34:04;;;;;;;22.73;10.97;;;-7.20;99.90;;;;;;4763544;30;20267;-79
2024/01/10 03:36:29;;;;;;;21.70;11.67;;;-7.30;99.90;;;;;;4770295;30;20275;-79
2024/01/10 03:38:55;;;;;;;25.80;11.43;;;-7.20;99.90;;;;;;4767708;30;20558;-79
2024/01/10 03:41:21;;;;;;;23.40;11.03;;;-7.30;99.90;;;;;;4765392;30;20206;-79
2024/01/10 03:43:47;;;;;;;24.97;11.87;;;-7.20;99.90;;;;;;4757113;30;20220;-79
2024/01/10 03:46:13;;;;;;;25.33;10.40;;;-7.20;99.90;;;;;;4774197;30;20219;-79
2024/01/10 03:48:47;;;;;;;28.70;11.83;;;-7.20;99.90;;;;;;4762762;30;20570;-80
2024/01/10 03:51:17;;;;;;;20.63;10.23;;;-7.20;99.90;;;;;;4757679;30;20204;-80
2024/01/10 03:53:43;;;;;;;26.60;11.33;;;-7.20;99.90;;;;;;4757637;30;20204;-79
2024/01/10 03:56:09;;;;;;;26.03;11.57;;;-7.30;99.90;;;;;;4773397;30;20568;-79
2024/01/10 03:58:35;;;;;;;22.00;10.10;;;-7.20;99.90;;;;;;4773491;30;20198;-78
2024/01/10 04:01:06;;;;;;;23.73;11.50;;;-7.20;99.90;;;;;;4770405;30;20193;-79
2024/01/10 04:03:32;;;;;;;22.23;11.67;;;-7.20;99.90;;;;;;4770311;30;20549;-80
2024/01/10 04:05:57;;;;;;;28.73;12.87;;;-7.20;99.90;;;;;;4773231;30;20197;-79
2024/01/10 04:08:23;;;;;;;24.83;12.30;;;-7.20;99.90;;;;;;4773486;30;20195;-79
2024/01/10 04:10:49;;;;;;;31.53;12.10;;;-7.20;99.90;;;;;;4766270;30;20198;-80
2024/01/10 04:13:14;;;;;;;21.53;11.07;;;-7.30;99.90;;;;;;4773678;30;20241;-79
2024/01/10 04:15:40;;;;;;;23.47;11.30;;;-7.20;99.90;;;;;;4773507;30;20232;-79
2024/01/10 04:18:06;;;;;;;22.17;11.27;;;-7.20;99.90;;;;;;4773073;30;20536;-81
2024/01/10 04:20:32;;;;;;;25.63;11.80;;;-7.30;99.90;;;;;;4771893;30;20537;-80
2024/01/10 04:22:58;;;;;;;23.83;11.60;;;-7.20;99.90;;;;;;4773136;30;20207;-80
2024/01/10 04:25:23;;;;;;;21.33;11.47;;;-7.20;99.90;;;;;;4767089;30;20229;-79
2024/01/10 04:27:50;;;;;;;25.87;11.53;;;-7.20;99.90;;;;;;4771888;30;20576;-80
2024/01/10 04:30:16;;;;;;;23.07;10.60;;;-7.20;99.90;;;;;;4757192;30;20281;-80
2024/01/10 04:32:41;;;;;;;25.30;10.83;;;-7.30;99.90;;;;;;4756880;30;20191;-80
2024/01/10 04:35:07;;;;;;;23.33;10.13;;;-7.30;99.90;;;;;;4749797;30;20207;-79
2024/01/10 04:37:33;;;;;;;26.23;11.97;;;-7.30;99.90;;;;;;4772795;30;20582;-80
2024/01/10 04:39:59;;;;;;;25.10;11.70;;;-7.30;99.90;;;;;;4765603;30;20712;-80
2024/01/10 04:42:24;;;;;;;24.20;11.17;;;-7.40;99.90;;;;;;4772946;30;20241;-80
2024/01/10 04:44:50;;;;;;;30.20;11.03;;;-7.40;99.90;;;;;;4772880;30;20656;-79
2024/01/10 04:47:16;;;;;;;24.87;11.00;;;-7.40;99.90;;;;;;4756680;30;20191;-79
2024/01/10 04:49:42;;;;;;;23.57;10.30;;;-7.40;99.90;;;;;;4764694;30;20197;-80
2024/01/10 04:52:08;;;;;;;27.97;11.20;;;-7.40;99.90;;;;;;4756022;30;20761;-80
2024/01/10 04:54:34;;;;;;;22.13;11.33;;;-7.50;99.90;;;;;;4771619;30;20674;-80
2024/01/10 04:56:59;;;;;;;25.63;11.07;;;-7.50;99.90;;;;;;4769100;30;20238;-79
2024/01/10 04:59:25;;;;;;;21.07;11.40;;;-7.50;99.90;;;;;;4768002;30;20193;-80
2024/01/10 05:01:51;;;;;;;25.80;12.53;;;-7.50;99.90;;;;;;4764863;30;20660;-79
2024/01/10 05:04:17;;;;;;;26.17;11.97;;;-7.50;99.90;;;;;;4765032;30;20373;-79
2024/01/10 05:06:43;;;;;;;24.60;11.70;;;-7.50;99.90;;;;;;4770988;30;20196;-80
2024/01/10 05:09:09;;;;;;;21.70;10.37;;;-7.50;99.90;;;;;;4768640;30;20277;-79
2024/01/10 05:11:36;;;;;;;25.07;11.20;;;-7.50;99.90;;;;;;4753245;30;20529;-79
2024/01/10 05:14:02;;;;;;;29.30;11.87;;;-7.60;99.90;;;;;;4772589;30;20192;-79
2024/01/10 05:16:28;;;;;;;29.67;9.93;;;-7.60;99.90;;;;;;4772075;30;20192;-80
2024/01/10 05:18:54;;;;;;;24.53;11.00;;;-7.60;99.90;;;;;;4771504;30;20214;-80
2024/01/10 05:21:20;;;;;;;25.23;10.97;;;-7.60;99.90;;;;;;4771959;30;20687;-79
2024/01/10 05:23:46;;;;;;;24.87;10.30;;;-7.60;99.90;;;;;;4746532;30;20233;-79
2024/01/10 05:26:12;;;;;;;23.40;10.77;;;-7.60;99.90;;;;;;4765936;30;20199;-80
2024/01/10 05:28:38;;;;;;;23.83;11.17;;;-7.60;99.90;;;;;;4771827;30;20198;-79
2024/01/10 05:31:04;;;;;;;24.20;10.93;;;-7.60;99.90;;;;;;4770393;30;20200;-79
2024/01/10 05:33:30;;;;;;;20.53;10.80;;;-7.70;99.90;;;;;;4770671;30;20205;-80
2024/01/10 05:35:58;;;;;;;24.50;11.53;;;-7.70;99.90;;;;;;4764374;30;20184;-80
2024/01/10 05:38:23;;;;;;;24.83;11.37;;;-7.70;99.90;;;;;;4762718;30;20268;-80
2024/01/10 05:40:49;;;;;;;30.87;11.83;;;-7.70;99.90;;;;;;4757208;30;20236;-80
2024/01/10 05:43:15;;;;;;;27.50;13.23;;;-7.70;99.90;;;;;;4771867;30;20596;-80
2024/01/10 05:45:41;;;;;;;24.17;12.07;;;-7.70;99.90;;;;;;4755162;30;20201;-80
2024/01/10 05:48:07;;;;;;;26.03;12.17;;;-7.60;99.90;;;;;;4771777;30;20192;-79
2024/01/10 05:50:32;;;;;;;28.80;12.50;;;-7.70;99.90;;;;;;4771657;30;20196;-79
2024/01/10 05:52:58;;;;;;;28.27;11.87;;;-7.70;99.90;;;;;;4771700;30;20193;-80
2024/01/10 05:55:24;;;;;;;25.70;11.97;;;-7.70;99.90;;;;;;4771043;30;20183;-80
2024/01/10 05:57:50;;;;;;;27.43;11.97;;;-7.70;99.90;;;;;;4756733;30;20196;-79
2024/01/10 06:00:16;;;;;;;25.33;11.73;;;-7.60;99.90;;;;;;4770781;30;20179;-81
2024/01/10 06:02:42;;;;;;;24.57;11.87;;;-7.70;99.90;;;;;;4754856;30;20528;-80
2024/01/10 06:05:11;;;;;;;22.30;12.17;;;-7.70;99.90;;;;;;4770593;30;20699;-80
2024/01/10 06:07:37;;;;;;;24.33;12.40;;;-7.80;99.90;;;;;;4771019;30;20560;-80
2024/01/10 06:10:04;;;;;;;28.90;12.23;;;-7.70;99.90;;;;;;4764222;30;20207;-80
2024/01/10 06:12:30;;;;;;;22.47;11.57;;;-7.70;99.90;;;;;;4771301;30;20603;-80
2024/01/10 06:14:56;;;;;;;26.83;11.87;;;-7.70;99.90;;;;;;4771166;30;20207;-80
2024/01/10 06:17:21;;;;;;;25.37;12.60;;;-7.70;99.90;;;;;;4771172;30;20253;-80
2024/01/10 06:19:47;;;;;;;24.57;11.40;;;-7.70;99.90;;;;;;4771192;30;20535;-79
2024/01/10 06:22:13;;;;;;;30.70;13.20;;;-7.70;99.90;;;;;;4771146;30;20234;-80
2024/01/10 06:24:40;;;;;;;24.83;11.23;;;-7.70;99.90;;;;;;4770978;30;20228;-80
2024/01/10 06:27:06;;;;;;;25.90;12.73;;;-7.70;99.90;;;;;;4771474;30;20198;-79
2024/01/10 06:29:32;;;;;;;26.63;12.03;;;-7.80;99.90;;;;;;4755123;30;20795;-79
2024/01/10 06:32:00;;;;;;;23.63;11.73;;;-7.80;99.90;;;;;;4770990;30;20228;-79
2024/01/10 06:34:29;;;;;;;24.53;12.13;;;-7.80;99.90;;;;;;4770646;30;20255;-80
2024/01/10 06:36:55;;;;;;;26.97;12.50;;;-7.80;99.90;;;;;;4770694;30;20250;-80
2024/01/10 06:39:21;;;;;;;24.80;11.57;;;-7.80;99.90;;;;;;4765020;30;20598;-80
2024/01/10 06:41:47;;;;;;;25.93;13.03;;;-7.80;99.90;;;;;;4769091;30;20188;-80
2024/01/10 06:44:13;;;;;;;23.37;12.23;;;-7.90;99.90;;;;;;4770397;30;20254;-79
2024/01/10 06:46:39;;;;;;;27.00;12.03;;;-7.90;99.90;;;;;;4770856;30;20191;-79
2024/01/10 06:49:04;;;;;;;26.03;12.23;;;-7.90;99.90;;;;;;4771124;30;20532;-80
2024/01/10 06:51:31;;;;;;;23.27;12.00;;;-8.00;99.90;;;;;;4770887;30;20190;-80
2024/01/10 06:54:03;;;;;;;25.53;13.20;;;-8.00;99.90;;;;;;4770841;30;20196;-80
2024/01/10 06:56:32;;;;;;;32.17;12.80;;;-8.00;99.90;;;;;;4770622;30;20267;-79
2024/01/10 06:58:59;;;;;;;24.00;12.40;;;-8.00;99.90;;;;;;4770273;30;20212;-80
2024/01/10 07:01:28;;;;;;;27.47;13.00;;;-8.00;99.90;;;;;;4770561;30;20223;-79
2024/01/10 07:03:57;;;;;;;31.73;12.47;;;-8.00;99.90;;;;;;4770478;30;20596;-79
2024/01/10 07:06:23;;;;;;;26.63;13.07;;;-7.90;99.90;;;;;;4770317;30;20192;-80
2024/01/10 07:08:50;;;;;;;30.33;12.60;;;-7.90;99.90;;;;;;4768512;30;20192;-80
2024/01/10 07:11:17;;;;;;;23.47;12.00;;;-7.90;99.90;;;;;;4764815;30;20189;-80
2024/01/10 07:13:43;;;;;;;31.33;13.07;;;-8.00;99.90;;;;;;4753946;30;20188;-80
2024/01/10 07:16:09;;;;;;;28.90;13.47;;;-8.00;99.90;;;;;;4770399;30;20237;-81
2024/01/10 07:18:35;;;;;;;23.63;12.10;;;-8.00;99.90;;;;;;4770412;30;20182;-80
2024/01/10 07:21:00;;;;;;;25.20;12.80;;;-8.00;99.90;;;;;;4770657;30;20644;-80
2024/01/10 07:23:26;;;;;;;29.73;13.30;;;-8.00;99.90;;;;;;4770384;30;20218;-79
2024/01/10 07:25:53;;;;;;;29.33;13.40;;;-8.00;99.90;;;;;;4769935;30;20227;-80
2024/01/10 07:28:19;;;;;;;31.97;13.67;;;-7.90;99.90;;;;;;4770201;30;20207;-79
2024/01/10 07:30:46;;;;;;;37.10;14.00;;;-7.90;99.90;;;;;;4754118;30;20192;-81
2024/01/10 07:33:12;;;;;;;25.77;13.30;;;-7.90;99.90;;;;;;4769069;30;20282;-80
2024/01/10 07:35:39;;;;;;;30.00;12.50;;;-7.90;99.90;;;;;;4753534;30;20195;-80
2024/01/10 07:38:08;;;;;;;26.67;13.57;;;-7.80;99.90;;;;;;4770162;30;20703;-80
2024/01/10 07:40:34;;;;;;;33.37;14.63;;;-7.90;99.90;;;;;;4762465;30;20279;-80
2024/01/10 07:43:00;;;;;;;30.57;13.63;;;-7.80;99.90;;;;;;4770199;30;20188;-79
2024/01/10 07:45:26;;;;;;;29.97;13.90;;;-7.80;99.90;;;;;;4754124;30;20236;-80
2024/01/10 07:47:52;;;;;;;31.93;14.53;;;-7.80;99.90;;;;;;4770055;30;20192;-80
2024/01/10 07:50:19;;;;;;;25.43;13.43;;;-7.80;99.90;;;;;;4770412;30;20244;-80
2024/01/10 07:52:46;;;;;;;28.97;13.10;;;-7.80;99.90;;;;;;4770111;30;20191;-80
2024/01/10 07:55:12;;;;;;;35.97;14.50;;;-7.80;99.90;;;;;;4769950;30;20576;-80
2024/01/10 07:57:38;;;;;;;29.47;13.03;;;-7.70;99.90;;;;;;4758575;30;20279;-80
2024/01/10 08:00:08;;;;;;;26.67;13.30;;;-7.70;99.90;;;;;;4768644;30;20262;-81
2024/01/10 08:02:33;;;;;;;29.10;14.13;;;-7.70;99.90;;;;;;4769809;30;20256;-81
2024/01/10 08:05:05;;;;;;;28.13;13.43;;;-7.70;99.90;;;;;;4769747;30;20668;-82
2024/01/10 08:07:32;;;;;;;24.23;14.00;;;-7.70;99.90;;;;;;4769082;30;20512;-80
2024/01/10 08:10:02;;;;;;;31.87;13.50;;;-7.60;99.90;;;;;;4746362;30;20717;-82
2024/01/10 08:12:28;;;;;;;28.20;13.43;;;-7.60;99.90;;;;;;4753828;30;20254;-82
2024/01/10 08:14:53;;;;;;;22.57;12.57;;;-7.60;99.90;;;;;;4767755;30;20185;-82
2024/01/10 08:17:19;;;;;;;30.30;13.77;;;-7.60;99.90;;;;;;4748591;30;20195;-82
2024/01/10 08:19:45;;;;;;;40.50;15.37;;;-7.60;99.90;;;;;;4768555;30;20671;-81
2024/01/10 08:22:12;;;;;;;29.00;14.23;;;-7.50;99.90;;;;;;4769605;30;20180;-81
2024/01/10 08:24:38;;;;;;;32.57;14.83;;;-7.60;99.90;;;;;;4767883;30;20253;-80
2024/01/10 08:27:04;;;;;;;29.17;15.00;;;-7.50;99.90;;;;;;4769546;30;20184;-81
2024/01/10 08:29:31;;;;;;;27.97;15.10;;;-7.50;99.90;;;;;;4756809;30;20349;-81
2024/01/10 08:31:57;;;;;;;29.37;13.97;;;-7.40;99.90;;;;;;4756902;30;20533;-81
2024/01/10 08:34:24;;;;;;;34.27;15.63;;;-7.40;99.90;;;;;;4756521;30;20552;-82
2024/01/10 08:36:50;;;;;;;36.53;15.37;;;-7.30;99.90;;;;;;4756373;30;20728;-81
2024/01/10 08:39:16;;;;;;;31.07;14.80;;;-7.30;99.90;;;;;;4766768;30;20328;-81
2024/01/10 08:41:44;;;;;;;33.43;15.60;;;-7.30;99.90;;;;;;4770060;30;20230;-82
2024/01/10 08:44:13;;;;;;;32.97;16.50;;;-7.30;99.90;;;;;;4756560;30;20606;-82
2024/01/10 08:46:39;;;;;;;33.77;15.43;;;-7.20;99.90;;;;;;4772312;30;20198;-82
2024/01/10 08:49:05;;;;;;;31.90;15.40;;;-7.10;99.90;;;;;;4772574;30;20184;-81
2024/01/10 08:51:30;;;;;;;36.93;16.80;;;-7.20;99.90;;;;;;4772600;30;20204;-81
2024/01/10 08:53:56;;;;;;;29.33;14.40;;;-7.20;99.90;;;;;;4756449;30;20676;-81
2024/01/10 08:56:23;;;;;;;36.90;16.93;;;-7.10;99.90;;;;;;4771940;30;20188;-81
2024/01/10 08:58:49;;;;;;;39.80;16.70;;;-7.00;99.90;;;;;;4772336;30;20188;-82
2024/01/10 09:01:15;;;;;;;38.00;17.60;;;-7.00;99.90;;;;;;4771126;30;20222;-81
2024/01/10 09:03:41;;;;;;;47.27;18.07;;;-7.00;99.90;;;;;;4756134;30;20216;-79
2024/01/10 09:06:09;;;;;;;34.90;17.03;;;-6.90;99.90;;;;;;4756179;30;20204;-81
2024/01/10 09:08:35;;;;;;;35.57;17.23;;;-6.90;99.90;;;;;;4771844;30;20184;-81
2024/01/10 09:11:00;;;;;;;30.53;16.07;;;-6.90;99.90;;;;;;4764892;30;20258;-81
2024/01/10 09:13:26;;;;;;;40.97;17.33;;;-6.80;99.90;;;;;;4756204;30;20263;-81
2024/01/10 09:15:52;;;;;;;38.43;17.77;;;-6.80;99.90;;;;;;4772080;30;20572;-81
2024/01/10 09:18:18;;;;;;;41.13;18.00;;;-6.70;99.90;;;;;;4756024;30;20276;-82
2024/01/10 09:20:44;;;;;;;40.43;17.90;;;-6.70;99.90;;;;;;4771842;30;20235;-80
2024/01/10 09:23:10;;;;;;;39.60;18.40;;;-6.70;99.90;;;;;;4770828;30;20226;-82
2024/01/10 09:25:36;;;;;;;41.47;19.00;;;-6.60;99.90;;;;;;4771728;30;20204;-80
2024/01/10 09:28:04;;;;;;;41.23;18.47;;;-6.70;99.90;;;;;;4752388;30;20196;-81
2024/01/10 09:30:30;;;;;;;38.60;16.70;;;-6.60;99.90;;;;;;4768077;30;20325;-80
2024/01/10 09:32:56;;;;;;;38.70;18.70;;;-6.60;99.90;;;;;;4755866;30;20332;-81
2024/01/10 09:35:22;;;;;;;36.30;18.47;;;-6.50;99.90;;;;;;4755726;30;20190;-82
2024/01/10 09:37:48;;;;;;;45.53;18.37;;;-6.50;99.90;;;;;;4755254;30;20597;-82
2024/01/10 09:40:16;;;;;;;38.37;18.77;;;-6.50;99.90;;;;;;4762354;30;20329;-81
2024/01/10 09:42:43;;;;;;;36.73;17.27;;;-6.50;99.90;;;;;;4754530;30;20204;-82
2024/01/10 09:45:12;;;;;;;39.40;19.00;;;-6.60;99.90;;;;;;4770687;30;20249;-82
2024/01/10 09:47:40;;;;;;;36.47;17.13;;;-6.50;99.90;;;;;;4770066;30;20191;-81
2024/01/10 09:50:07;;;;;;;39.07;18.43;;;-6.50;99.90;;;;;;4770658;30;20195;-82
2024/01/10 09:53:04;;;;;;;39.30;18.80;;;-6.30;99.90;;;;;;4770573;30;20283;-81
2024/01/10 09:55:35;;;;;;;36.27;17.20;;;-6.30;99.90;;;;;;4751280;30;20194;-81
2024/01/10 09:58:05;;;;;;;39.13;18.57;;;-6.20;99.90;;;;;;4755221;30;20198;-82
2024/01/10 10:00:33;;;;;;;41.13;18.10;;;-6.10;99.90;;;;;;4771186;30;20227;-81
2024/01/10 10:03:01;;;;;;;39.37;18.17;;;-6.20;99.90;;;;;;4755319;30;20248;-82
2024/01/10 10:05:28;;;;;;;41.27;18.67;;;-6.00;99.90;;;;;;4770355;30;20295;-81
2024/01/10 10:07:54;;;;;;;41.40;18.73;;;-6.00;99.90;;;;;;4755112;30;20539;-82
2024/01/10 10:10:19;;;;;;;38.70;18.20;;;-5.90;99.90;;;;;;4747848;30;20203;-81
2024/01/10 10:12:52;;;;;;;35.80;18.00;;;-5.80;99.90;;;;;;4769965;30;20196;-81
2024/01/10 10:15:21;;;;;;;39.60;19.90;;;-5.70;99.90;;;;;;4771320;30;20201;-82
2024/01/10 10:17:50;;;;;;;37.50;16.67;;;-5.60;99.90;;;;;;4770625;30;20276;-81
2024/01/10 10:20:32;;;;;;;41.47;18.07;;;-5.50;99.90;;;;;;4747908;30;20340;-81
2024/01/10 10:23:06;;;;;;;35.60;17.77;;;-5.40;99.90;;;;;;4755129;30;20237;-81
2024/01/10 10:25:34;;;;;;;43.33;18.83;;;-5.40;99.90;;;;;;4770447;30;20280;-82
2024/01/10 10:28:01;;;;;;;39.30;17.93;;;-5.40;99.90;;;;;;4770481;30;20188;-81
2024/01/10 10:30:30;;;;;;;41.67;19.67;;;-5.30;99.90;;;;;;4769352;30;20192;-81
2024/01/10 10:32:56;;;;;;;39.57;19.13;;;-5.30;99.90;;;;;;4770604;30;20623;-82
2024/01/10 10:35:22;;;;;;;42.80;19.23;;;-5.20;99.90;;;;;;4754132;30;20223;-82
2024/01/10 10:37:52;;;;;;;38.37;18.83;;;-5.10;99.90;;;;;;4768995;30;20645;-81
2024/01/10 10:40:19;;;;;;;41.17;18.70;;;-5.00;99.90;;;;;;4743785;30;20251;-82
2024/01/10 10:42:47;;;;;;;39.13;19.03;;;-5.00;99.90;;;;;;4751337;30;20283;-81
2024/01/10 10:45:19;;;;;;;44.13;18.83;;;-4.90;99.90;;;;;;4751685;30;20224;-81
2024/01/10 10:47:48;;;;;;;41.07;19.03;;;-4.80;99.90;;;;;;4765475;30;20629;-82
2024/01/10 10:50:23;;;;;;;37.77;18.40;;;-4.80;99.90;;;;;;4747133;30;20589;-81
2024/01/10 10:52:50;;;;;;;38.17;18.87;;;-4.70;99.90;;;;;;4751347;30;20191;-81
2024/01/10 10:55:20;;;;;;;39.07;18.50;;;-4.70;99.90;;;;;;4752875;30;20200;-81
2024/01/10 10:57:48;;;;;;;41.33;19.70;;;-4.70;99.90;;;;;;4744441;30;20294;-81
2024/01/10 11:00:15;;;;;;;43.33;20.00;;;-4.60;99.90;;;;;;4751718;30;20212;-81
2024/01/10 11:02:42;;;;;;;39.47;19.87;;;-4.60;99.90;;;;;;4766481;30;20193;-81
2024/01/10 11:05:09;;;;;;;46.23;20.57;;;-4.50;99.90;;;;;;4753054;30;20657;-82
2024/01/10 11:07:40;;;;;;;43.33;19.13;;;-4.50;99.90;;;;;;4766574;30;20188;-82
2024/01/10 11:10:10;;;;;;;39.67;18.23;;;-4.50;99.90;;;;;;4745484;30;20529;-82
2024/01/10 11:12:55;;;;;;;42.23;17.93;;;-4.40;99.90;;;;;;4766582;30;20197;-82
2024/01/10 11:15:40;;;;;;;43.30;19.87;;;-4.30;99.90;;;;;;4752920;30;20192;-81
2024/01/10 11:18:14;;;;;;;40.43;19.27;;;-4.30;99.90;;;;;;4738974;30;20269;-82
2024/01/10 11:21:24;;;;;;;35.93;18.57;;;-4.30;99.90;;;;;;4751477;30;20718;-81
2024/01/10 11:23:54;;;;;;;38.33;17.93;;;-4.20;99.90;;;;;;4750618;30;20295;-82
2024/01/10 11:26:20;;;;;;;39.07;18.53;;;-4.10;99.90;;;;;;4752259;30;20196;-82
2024/01/10 11:28:47;;;;;;;37.37;18.27;;;-4.10;99.90;;;;;;4752628;30;20577;-82
2024/01/10 11:31:15;;;;;;;38.70;18.70;;;-4.00;99.90;;;;;;4751491;30;20254;-81
2024/01/10 11:33:43;;;;;;;41.40;18.57;;;-3.90;99.90;;;;;;4751404;30;20229;-82
2024/01/10 11:36:20;;;;;;;45.07;18.53;;;-3.80;99.90;;;;;;4748800;30;20188;-81
2024/01/10 11:39:05;;;;;;;38.20;18.40;;;-3.70;99.90;;;;;;4742469;30;20255;-82
2024/01/10 11:41:32;;;;;;;35.83;17.53;;;-3.60;99.90;;;;;;4750471;30;20547;-82
2024/01/10 11:44:17;;;;;;;35.20;17.63;;;-3.60;99.90;;;;;;4770076;30;20294;-82
2024/01/10 11:46:48;;;;;;;37.03;16.87;;;-3.50;99.90;;;;;;4754071;30;20204;-82
2024/01/10 11:49:16;;;;;;;37.07;17.93;;;-3.60;99.90;;;;;;4754146;30;20184;-84
2024/01/10 11:51:46;;;;;;;35.63;17.83;;;-3.50;99.90;;;;;;4754210;30;20270;-82
2024/01/10 11:54:12;;;;;;;42.17;19.60;;;-3.50;99.90;;;;;;4769081;30;20196;-82
2024/01/10 11:56:39;;;;;;;35.07;17.20;;;-3.40;99.90;;;;;;4762370;30;20193;-81
2024/01/10 11:59:14;;;;;;;36.53;18.43;;;-3.40;99.90;;;;;;4753974;30;20188;-82
2024/01/10 12:01:41;;;;;;;35.37;17.67;;;-3.30;99.90;;;;;;4767679;30;20191;-82
2024/01/10 12:04:09;;;;;;;39.53;18.27;;;-3.20;99.90;;;;;;4756820;30;20268;-82
2024/01/10 12:06:36;;;;;;;37.00;17.37;;;-3.20;99.90;;;;;;4750630;30;20190;-83
2024/01/10 12:09:08;;;;;;;34.50;17.47;;;-3.10;99.90;;;;;;4750016;30;20196;-82
2024/01/10 12:11:41;;;;;;;38.80;18.03;;;-3.10;99.90;;;;;;4773227;30;20227;-82
2024/01/10 12:14:08;;;;;;;40.60;17.17;;;-3.10;99.90;;;;;;4744247;30;20200;-82
2024/01/10 12:16:34;;;;;;;38.13;17.23;;;-3.00;99.90;;;;;;4773491;30;20255;-83
2024/01/10 12:19:01;;;;;;;39.87;17.33;;;-3.00;99.90;;;;;;4764891;30;20215;-84
2024/01/10 12:21:27;;;;;;;39.27;18.97;;;-3.00;99.90;;;;;;4773536;30;20228;-83
2024/01/10 12:23:52;;;;;;;34.57;16.47;;;-3.00;99.90;;;;;;4773234;30;20264;-83
2024/01/10 12:26:19;;;;;;;33.40;16.00;;;-2.90;99.90;;;;;;4765649;30;20187;-83
2024/01/10 12:28:55;;;;;;;32.43;16.40;;;-2.90;99.90;;;;;;4757020;30;20223;-83
2024/01/10 12:31:25;;;;;;;34.27;15.47;;;-2.90;99.90;;;;;;4751729;30;20196;-84